Amarant — CQSF — position and weather

sailwx.info

Track history (hours):
 
Tides and Currents Weather Stations Pressure Air Temp Water Temp Dewpoint Dewpoint Depression Visibility Wind Speed Wind Dir Waves Ship Positions

Amarant

Last reported at 2014-Jul-30 04:33 UTC. Time now 2014-Jul-30 05:08 UTC.
Position N 57°41' E 011°53'.

Length 120 m; draft 6.2 m.

Type: Tanker. MMSI: 255623000.

Date/timePositionNaut miles runAvg speedWind from/ knotsBaromVisibWave heightAir tempDewpointWater temp
2014-Jul-30 04:33N 57°41' E 011°53'0 0.0
2014-Jul-30 03:33N 57°41' E 011°53'0 0.0
2014-Jul-30 02:33N 57°41' E 011°53'0 0.0
2014-Jul-30 01:33N 57°41' E 011°53'0 0.0
2014-Jul-30 00:33N 57°41' E 011°53'0 0.0
2014-Jul-29 23:33N 57°41' E 011°53'0 0.0
2014-Jul-29 22:33N 57°41' E 011°53'7 7.4
2014-Jul-29 21:33N 57°37' E 011°41'1212.1
2014-Jul-29 20:34N 57°40' E 011°19'1514.9
2014-Jul-29 19:33N 57°45' E 010°53'1514.5
2014-Jul-29 18:33N 57°44' E 010°26'21213.2
2014-Jul-29 02:33N 55°07' E 006°09'5513.4
2014-Jul-28 22:26N 54°20' E 005°21'1213.6
2014-Jul-28 21:33N 54°09' E 005°10'1313.3
2014-Jul-28 20:33N 53°56' E 005°05'1313.4
2014-Jul-28 19:33N 53°44' E 004°58'1413.9
2014-Jul-28 18:33N 53°31' E 004°47'1414.1
2014-Jul-28 17:33N 53°18' E 004°38'11012.0
2014-Jul-28 08:24N 51°39' E 003°20'1011.6
2014-Jul-28 07:33N 51°30' E 003°27'1010.4
2014-Jul-28 06:33N 51°25' E 003°42'1110.8
2014-Jul-28 05:34N 51°26' E 003°59'1111.2
2014-Jul-28 04:33N 51°21' E 004°15'5 5.4
2014-Jul-28 03:34N 51°17' E 004°20'2 1.8
2014-Jul-28 02:32N 51°15' E 004°22'0 0.0
2014-Jul-28 01:32N 51°15' E 004°22'0 0.0
2014-Jul-28 00:32N 51°15' E 004°22'0 0.0
2014-Jul-27 23:32N 51°15' E 004°22'0 0.0
2014-Jul-27 22:32N 51°15' E 004°22'0 0.0
2014-Jul-27 21:32N 51°15' E 004°22'0 0.0
2014-Jul-27 20:32N 51°15' E 004°22'0 0.0
2014-Jul-27 19:31N 51°15' E 004°22'0 0.0
2014-Jul-27 18:31N 51°15' E 004°22'0 0.0
2014-Jul-27 17:31N 51°15' E 004°22'0 0.0
2014-Jul-27 16:31N 51°15' E 004°22'0 0.0
2014-Jul-27 15:31N 51°15' E 004°22'0 0.0
2014-Jul-27 14:31N 51°15' E 004°22'0 0.0
2014-Jul-27 13:31N 51°15' E 004°22'0 0.0
2014-Jul-27 12:31N 51°15' E 004°22'0 0.4
2014-Jul-27 11:31N 51°15' E 004°22'0 0.0
2014-Jul-27 10:31N 51°15' E 004°22'0 0.0
2014-Jul-27 09:31N 51°15' E 004°22'0 0.0
2014-Jul-27 08:31N 51°15' E 004°22'0 0.0
2014-Jul-27 07:31N 51°15' E 004°22'0 0.0
2014-Jul-27 06:31N 51°15' E 004°22'0 0.0
2014-Jul-27 05:31N 51°15' E 004°22'0 0.0
2014-Jul-27 04:31N 51°15' E 004°22'0 0.0
2014-Jul-27 03:31N 51°15' E 004°22'0 0.0
2014-Jul-27 02:31N 51°15' E 004°22'0 0.0
2014-Jul-27 01:31N 51°15' E 004°22'0 0.0
2014-Jul-27 00:31N 51°15' E 004°22'0 0.0
2014-Jul-26 23:31N 51°15' E 004°22'0 0.0
2014-Jul-26 22:31N 51°15' E 004°22'0 0.0
2014-Jul-26 21:31N 51°15' E 004°22'0 0.0
2014-Jul-26 20:33N 51°15' E 004°22'2 2.2
2014-Jul-26 19:34N 51°17' E 004°20'7 7.0
2014-Jul-26 18:33N 51°22' E 004°13'7 7.4
2014-Jul-26 17:33N 51°25' E 004°02'8 7.7
2014-Jul-26 16:33N 51°21' E 003°51'1010.5
2014-Jul-26 15:33N 51°25' E 003°36'1010.0
2014-Jul-26 14:33N 51°33' E 003°25'1312.5
2014-Jul-26 13:33N 51°43' E 003°14'1311.1
2014-Jul-26 12:20N 51°56' E 003°20'10313.0
2014-Jul-26 04:23N 53°28' E 004°36'1012.5
2014-Jul-26 03:33N 53°32' E 004°53'1313.4
2014-Jul-26 02:34N 53°36' E 005°14'1514.6
2014-Jul-26 01:33N 53°41' E 005°37'1514.7
2014-Jul-26 00:33N 53°46' E 006°01'1514.3
2014-Jul-25 23:32N 53°51' E 006°24'3912.9
2014-Jul-25 20:32N 53°60' E 007°28'1212.1
2014-Jul-25 19:33N 54°02' E 007°48'1212.2
2014-Jul-25 18:33N 54°01' E 008°09'1212.4
2014-Jul-25 17:33N 53°59' E 008°30'1514.9
2014-Jul-25 16:34N 53°50' E 008°51'1414.1
2014-Jul-25 15:33N 53°53' E 009°14'1514.3
2014-Jul-25 14:31N 53°41' E 009°30'1010.7
2014-Jul-25 13:33N 53°34' E 009°42'8 7.6
2014-Jul-25 12:33N 53°33' E 009°55'4 4.0
2014-Jul-25 11:31N 53°29' E 009°57'0 0.0
2014-Jul-24 10:33N 53°29' E 009°57'3 3.0
2014-Jul-24 09:33N 53°32' E 009°56'8 8.1
2014-Jul-24 08:33N 53°34' E 009°43'10 9.2
2014-Jul-24 07:30N 53°40' E 009°31'1111.2
2014-Jul-24 06:33N 53°49' E 009°22'1010.1
2014-Jul-24 05:34N 53°52' E 009°06'1110.8
2014-Jul-24 04:33N 53°50' E 008°48'9 9.3
2014-Jul-24 03:33N 53°57' E 008°37'1110.8
2014-Jul-24 02:34N 53°60' E 008°19'8 8.4
2014-Jul-24 01:33N 54°03' E 008°06'1 1.3
2014-Jul-24 00:33N 54°03' E 008°08'0 0.0
2014-Jul-23 23:30N 54°03' E 008°08'0 0.0
2014-Jul-23 22:33N 54°03' E 008°08'0 0.0
2014-Jul-23 21:30N 54°03' E 008°08'0 0.0
2014-Jul-23 20:33N 54°03' E 008°08'0 0.0
2014-Jul-23 19:33N 54°03' E 008°08'0 0.1
2014-Jul-23 18:30N 54°03' E 008°08'0 0.0
2014-Jul-23 17:33N 54°03' E 008°08'0 0.0
2014-Jul-23 16:33N 54°03' E 008°08'0 0.0
2014-Jul-23 15:30N 54°03' E 008°08'0 0.0
2014-Jul-23 14:33N 54°03' E 008°08'0 0.0
2014-Jul-23 13:33N 54°03' E 008°08'0 0.0
2014-Jul-23 12:10N 54°03' E 008°08'0 0.0
2014-Jul-23 11:33N 54°03' E 008°08'0 0.0
2014-Jul-23 10:33N 54°03' E 008°08'0 0.0
2014-Jul-23 09:30N 54°03' E 008°08'0 0.1
2014-Jul-23 08:33N 54°03' E 008°08'0 0.0
2014-Jul-23 07:33N 54°03' E 008°08'0 0.0
2014-Jul-23 06:33N 54°03' E 008°08'0 0.1
2014-Jul-23 05:33N 54°03' E 008°08'0 0.0
2014-Jul-23 04:33N 54°03' E 008°08'0 0.1
2014-Jul-23 03:33N 54°03' E 008°08'0 0.0
2014-Jul-23 02:33N 54°03' E 008°08'0 0.0
2014-Jul-23 01:33N 54°03' E 008°08'0 0.0
2014-Jul-23 00:33N 54°03' E 008°08'0 0.0
2014-Jul-22 23:30N 54°03' E 008°08'0 0.0
2014-Jul-22 22:33N 54°03' E 008°08'0 0.0
2014-Jul-22 21:33N 54°03' E 008°08'0 0.0
2014-Jul-22 20:33N 54°03' E 008°08'0 0.0
2014-Jul-22 19:33N 54°03' E 008°08'0 0.0
2014-Jul-22 18:33N 54°03' E 008°08'5 4.7
2014-Jul-22 17:33N 54°04' E 008°01'1514.8
2014-Jul-22 16:33N 54°08' E 007°36'1514.7
2014-Jul-22 15:32N 54°09' E 007°11'1414.3
2014-Jul-22 14:33N 54°09' E 006°47'1313.6
2014-Jul-22 13:33N 54°09' E 006°24'1313.4
2014-Jul-22 12:33N 54°07' E 006°01'1313.4
2014-Jul-22 11:33N 54°05' E 005°38'1313.3
2014-Jul-22 10:33N 54°03' E 005°16'1313.4
2014-Jul-22 09:33N 54°01' E 004°53'1211.9
2014-Jul-22 08:33N 53°60' E 004°33'1211.7
2014-Jul-22 07:31N 53°58' E 004°13'9413.5
2014-Jul-22 00:31N 53°51' E 001°33'1414.2
2014-Jul-21 23:32N 53°51' E 001°09'2814.0
2014-Jul-21 21:34N 53°40' E 000°26'1211.6
2014-Jul-21 20:33N 53°33' E 000°11'312.9
2014-Jul-21 20:18N 53°34' E 000°06'1013.4
2014-Jul-21 19:34N 53°38' W 000°10'8 7.6
2014-Jul-21 18:33N 53°44' W 000°16'1 0.5
2014-Jul-21 17:33N 53°45' W 000°15'0 0.0
2014-Jul-21 09:31N 53°45' W 000°15'1 0.7
2014-Jul-21 08:34N 53°44' W 000°17'5 4.7
2014-Jul-21 07:33N 53°40' W 000°13'8 7.9
2014-Jul-21 06:34N 53°36' W 000°02'1110.5
2014-Jul-21 05:33N 53°33' E 000°16'1111.1
2014-Jul-21 04:32N 53°32' E 000°34'1111.7
2014-Jul-21 03:34N 53°29' E 000°53'11 5.1
2014-Jul-21 01:25N 53°19' E 001°01'1310.6
2014-Jul-21 00:11N 53°13' E 001°20'711.5
2014-Jul-20 23:33N 53°08' E 001°30'1212.1
2014-Jul-20 22:33N 53°01' E 001°45'1313.0
2014-Jul-20 21:33N 52°54' E 002°04'79 9.9
2014-Jul-20 13:33N 51°44' E 003°06'1111.0
2014-Jul-20 12:32N 51°38' E 003°21'1313.4
2014-Jul-20 11:33N 51°27' E 003°32'1312.7
2014-Jul-20 10:34N 51°21' E 003°49'10 9.7
2014-Jul-20 09:33N 51°22' E 004°05'10 9.6
2014-Jul-20 08:33N 51°18' E 004°18'2 1.8
2014-Jul-20 07:33N 51°16' E 004°20'2 1.8
2014-Jul-20 06:33N 51°15' E 004°22'0 0.0
2014-Jul-20 05:33N 51°15' E 004°22'  
Track history (hours):
 
Tides and Currents Weather Stations Pressure Air Temp Water Temp Dewpoint Dewpoint Depression Visibility Wind Speed Wind Dir Waves Ship Positions

Amarant

Last reported at 2014-Jul-30 04:33 UTC. Time now 2014-Jul-30 05:08 UTC.
Position N 57°41' E 011°53'.

Length 120 m; draft 6.2 m.

Type: Tanker. MMSI: 255623000.

Date/timePositionNaut miles runAvg speedWind from/ knotsBaromVisibWave heightAir tempDewpointWater temp
2014-Jul-30 04:33N 57°41' E 011°53'0 0.0
2014-Jul-30 03:33N 57°41' E 011°53'0 0.0
2014-Jul-30 02:33N 57°41' E 011°53'0 0.0
2014-Jul-30 01:33N 57°41' E 011°53'0 0.0
2014-Jul-30 00:33N 57°41' E 011°53'0 0.0
2014-Jul-29 23:33N 57°41' E 011°53'0 0.0
2014-Jul-29 22:33N 57°41' E 011°53'7 7.4
2014-Jul-29 21:33N 57°37' E 011°41'1212.1
2014-Jul-29 20:34N 57°40' E 011°19'1514.9
2014-Jul-29 19:33N 57°45' E 010°53'1514.5
2014-Jul-29 18:33N 57°44' E 010°26'21213.2
2014-Jul-29 02:33N 55°07' E 006°09'5513.4
2014-Jul-28 22:26N 54°20' E 005°21'1213.6
2014-Jul-28 21:33N 54°09' E 005°10'1313.3
2014-Jul-28 20:33N 53°56' E 005°05'1313.4
2014-Jul-28 19:33N 53°44' E 004°58'1413.9
2014-Jul-28 18:33N 53°31' E 004°47'1414.1
2014-Jul-28 17:33N 53°18' E 004°38'11012.0
2014-Jul-28 08:24N 51°39' E 003°20'1011.6
2014-Jul-28 07:33N 51°30' E 003°27'1010.4
2014-Jul-28 06:33N 51°25' E 003°42'1110.8
2014-Jul-28 05:34N 51°26' E 003°59'1111.2
2014-Jul-28 04:33N 51°21' E 004°15'5 5.4
2014-Jul-28 03:34N 51°17' E 004°20'2 1.8
2014-Jul-28 02:32N 51°15' E 004°22'0 0.0
2014-Jul-28 01:32N 51°15' E 004°22'0 0.0
2014-Jul-28 00:32N 51°15' E 004°22'0 0.0
2014-Jul-27 23:32N 51°15' E 004°22'0 0.0
2014-Jul-27 22:32N 51°15' E 004°22'0 0.0
2014-Jul-27 21:32N 51°15' E 004°22'0 0.0
2014-Jul-27 20:32N 51°15' E 004°22'0 0.0
2014-Jul-27 19:31N 51°15' E 004°22'0 0.0
2014-Jul-27 18:31N 51°15' E 004°22'0 0.0
2014-Jul-27 17:31N 51°15' E 004°22'0 0.0
2014-Jul-27 16:31N 51°15' E 004°22'0 0.0
2014-Jul-27 15:31N 51°15' E 004°22'0 0.0
2014-Jul-27 14:31N 51°15' E 004°22'0 0.0
2014-Jul-27 13:31N 51°15' E 004°22'0 0.0
2014-Jul-27 12:31N 51°15' E 004°22'0 0.4
2014-Jul-27 11:31N 51°15' E 004°22'0 0.0
2014-Jul-27 10:31N 51°15' E 004°22'0 0.0
2014-Jul-27 09:31N 51°15' E 004°22'0 0.0
2014-Jul-27 08:31N 51°15' E 004°22'0 0.0
2014-Jul-27 07:31N 51°15' E 004°22'0 0.0
2014-Jul-27 06:31N 51°15' E 004°22'0 0.0
2014-Jul-27 05:31N 51°15' E 004°22'0 0.0
2014-Jul-27 04:31N 51°15' E 004°22'0 0.0
2014-Jul-27 03:31N 51°15' E 004°22'0 0.0
2014-Jul-27 02:31N 51°15' E 004°22'0 0.0
2014-Jul-27 01:31N 51°15' E 004°22'0 0.0
2014-Jul-27 00:31N 51°15' E 004°22'0 0.0
2014-Jul-26 23:31N 51°15' E 004°22'0 0.0
2014-Jul-26 22:31N 51°15' E 004°22'0 0.0
2014-Jul-26 21:31N 51°15' E 004°22'0 0.0
2014-Jul-26 20:33N 51°15' E 004°22'2 2.2
2014-Jul-26 19:34N 51°17' E 004°20'7 7.0
2014-Jul-26 18:33N 51°22' E 004°13'7 7.4
2014-Jul-26 17:33N 51°25' E 004°02'8 7.7
2014-Jul-26 16:33N 51°21' E 003°51'1010.5
2014-Jul-26 15:33N 51°25' E 003°36'1010.0
2014-Jul-26 14:33N 51°33' E 003°25'1312.5
2014-Jul-26 13:33N 51°43' E 003°14'1311.1
2014-Jul-26 12:20N 51°56' E 003°20'10313.0
2014-Jul-26 04:23N 53°28' E 004°36'1012.5
2014-Jul-26 03:33N 53°32' E 004°53'1313.4
2014-Jul-26 02:34N 53°36' E 005°14'1514.6
2014-Jul-26 01:33N 53°41' E 005°37'1514.7
2014-Jul-26 00:33N 53°46' E 006°01'1514.3
2014-Jul-25 23:32N 53°51' E 006°24'3912.9
2014-Jul-25 20:32N 53°60' E 007°28'1212.1
2014-Jul-25 19:33N 54°02' E 007°48'1212.2
2014-Jul-25 18:33N 54°01' E 008°09'1212.4
2014-Jul-25 17:33N 53°59' E 008°30'1514.9
2014-Jul-25 16:34N 53°50' E 008°51'1414.1
2014-Jul-25 15:33N 53°53' E 009°14'1514.3
2014-Jul-25 14:31N 53°41' E 009°30'1010.7
2014-Jul-25 13:33N 53°34' E 009°42'8 7.6
2014-Jul-25 12:33N 53°33' E 009°55'4 4.0
2014-Jul-25 11:31N 53°29' E 009°57'0 0.0
2014-Jul-24 10:33N 53°29' E 009°57'3 3.0
2014-Jul-24 09:33N 53°32' E 009°56'8 8.1
2014-Jul-24 08:33N 53°34' E 009°43'10 9.2
2014-Jul-24 07:30N 53°40' E 009°31'1111.2
2014-Jul-24 06:33N 53°49' E 009°22'1010.1
2014-Jul-24 05:34N 53°52' E 009°06'1110.8
2014-Jul-24 04:33N 53°50' E 008°48'9 9.3
2014-Jul-24 03:33N 53°57' E 008°37'1110.8
2014-Jul-24 02:34N 53°60' E 008°19'8 8.4
2014-Jul-24 01:33N 54°03' E 008°06'1 1.3
2014-Jul-24 00:33N 54°03' E 008°08'0 0.0
2014-Jul-23 23:30N 54°03' E 008°08'0 0.0
2014-Jul-23 22:33N 54°03' E 008°08'0 0.0
2014-Jul-23 21:30N 54°03' E 008°08'0 0.0
2014-Jul-23 20:33N 54°03' E 008°08'0 0.0
2014-Jul-23 19:33N 54°03' E 008°08'0 0.1
2014-Jul-23 18:30N 54°03' E 008°08'0 0.0
2014-Jul-23 17:33N 54°03' E 008°08'0 0.0
2014-Jul-23 16:33N 54°03' E 008°08'0 0.0
2014-Jul-23 15:30N 54°03' E 008°08'0 0.0
2014-Jul-23 14:33N 54°03' E 008°08'0 0.0
2014-Jul-23 13:33N 54°03' E 008°08'0 0.0
2014-Jul-23 12:10N 54°03' E 008°08'0 0.0
2014-Jul-23 11:33N 54°03' E 008°08'0 0.0
2014-Jul-23 10:33N 54°03' E 008°08'0 0.0
2014-Jul-23 09:30N 54°03' E 008°08'0 0.1
2014-Jul-23 08:33N 54°03' E 008°08'0 0.0
2014-Jul-23 07:33N 54°03' E 008°08'0 0.0
2014-Jul-23 06:33N 54°03' E 008°08'0 0.1
2014-Jul-23 05:33N 54°03' E 008°08'0 0.0
2014-Jul-23 04:33N 54°03' E 008°08'0 0.1
2014-Jul-23 03:33N 54°03' E 008°08'0 0.0
2014-Jul-23 02:33N 54°03' E 008°08'0 0.0
2014-Jul-23 01:33N 54°03' E 008°08'0 0.0
2014-Jul-23 00:33N 54°03' E 008°08'0 0.0
2014-Jul-22 23:30N 54°03' E 008°08'0 0.0
2014-Jul-22 22:33N 54°03' E 008°08'0 0.0
2014-Jul-22 21:33N 54°03' E 008°08'0 0.0
2014-Jul-22 20:33N 54°03' E 008°08'0 0.0
2014-Jul-22 19:33N 54°03' E 008°08'0 0.0
2014-Jul-22 18:33N 54°03' E 008°08'5 4.7
2014-Jul-22 17:33N 54°04' E 008°01'1514.8
2014-Jul-22 16:33N 54°08' E 007°36'1514.7
2014-Jul-22 15:32N 54°09' E 007°11'1414.3
2014-Jul-22 14:33N 54°09' E 006°47'1313.6
2014-Jul-22 13:33N 54°09' E 006°24'1313.4
2014-Jul-22 12:33N 54°07' E 006°01'1313.4
2014-Jul-22 11:33N 54°05' E 005°38'1313.3
2014-Jul-22 10:33N 54°03' E 005°16'1313.4
2014-Jul-22 09:33N 54°01' E 004°53'1211.9
2014-Jul-22 08:33N 53°60' E 004°33'1211.7
2014-Jul-22 07:31N 53°58' E 004°13'9413.5
2014-Jul-22 00:31N 53°51' E 001°33'1414.2
2014-Jul-21 23:32N 53°51' E 001°09'2814.0
2014-Jul-21 21:34N 53°40' E 000°26'1211.6
2014-Jul-21 20:33N 53°33' E 000°11'312.9
2014-Jul-21 20:18N 53°34' E 000°06'1013.4
2014-Jul-21 19:34N 53°38' W 000°10'8 7.6
2014-Jul-21 18:33N 53°44' W 000°16'1 0.5
2014-Jul-21 17:33N 53°45' W 000°15'0 0.0
2014-Jul-21 09:31N 53°45' W 000°15'1 0.7
2014-Jul-21 08:34N 53°44' W 000°17'5 4.7
2014-Jul-21 07:33N 53°40' W 000°13'8 7.9
2014-Jul-21 06:34N 53°36' W 000°02'1110.5
2014-Jul-21 05:33N 53°33' E 000°16'1111.1
2014-Jul-21 04:32N 53°32' E 000°34'1111.7
2014-Jul-21 03:34N 53°29' E 000°53'11 5.1
2014-Jul-21 01:25N 53°19' E 001°01'1310.6
2014-Jul-21 00:11N 53°13' E 001°20'711.5
2014-Jul-20 23:33N 53°08' E 001°30'1212.1
2014-Jul-20 22:33N 53°01' E 001°45'1313.0
2014-Jul-20 21:33N 52°54' E 002°04'79 9.9
2014-Jul-20 13:33N 51°44' E 003°06'1111.0
2014-Jul-20 12:32N 51°38' E 003°21'1313.4
2014-Jul-20 11:33N 51°27' E 003°32'1312.7
2014-Jul-20 10:34N 51°21' E 003°49'10 9.7
2014-Jul-20 09:33N 51°22' E 004°05'10 9.6
2014-Jul-20 08:33N 51°18' E 004°18'2 1.8
2014-Jul-20 07:33N 51°16' E 004°20'2 1.8
2014-Jul-20 06:33N 51°15' E 004°22'0 0.0
2014-Jul-20 05:33N 51°15' E 004°22'  

Dump ship's entire track history